Time;durP1;ratioP1;P1;durP2;ratioP2;P2;SDS_P1;SDS_P2;PMS_P1;PMS_P2;Temp;Humidity;BMP_temperature;BMP_pressure;BME280_temperature;BME280_humidity;BME280_pressure;Samples;Min_cycle;Max_cycle;Signal;HPM_P1;HPM_P2
2023/07/29 00:00:34;;;;;;;5.30;4.70;;;;;;;11.54;78.48;98841.49;106383;1257;99190;-54
2023/07/29 00:03:22;;;;;;;5.40;4.60;;;;;;;11.53;78.61;98846.27;106292;1258;22534;-52
2023/07/29 00:05:51;;;;;;;4.90;4.20;;;;;;;11.47;78.09;98851.52;106382;1257;99204;-52
2023/07/29 00:08:20;;;;;;;5.20;4.50;;;;;;;11.38;77.95;98851.78;106445;1258;22642;-54
2023/07/29 00:10:49;;;;;;;5.50;4.30;;;;;;;11.29;78.18;98851.97;106367;1258;99913;-52
2023/07/29 00:13:18;;;;;;;6.50;4.50;;;;;;;11.28;78.73;98852.73;106467;1257;24208;-53
2023/07/29 00:15:50;;;;;;;7.40;4.90;;;;;;;11.29;79.03;98848.13;106484;1257;22611;-54
2023/07/29 00:18:18;;;;;;;6.70;5.80;;;;;;;11.29;79.07;98846.04;106301;1258;99114;-53
2023/07/29 00:20:47;;;;;;;6.30;5.10;;;;;;;11.28;79.07;98849.96;106404;1258;24231;-51
2023/07/29 00:23:19;;;;;;;5.20;4.60;;;;;;;11.28;79.31;98847.53;106370;1257;100147;-52
2023/07/29 00:25:48;;;;;;;6.00;5.40;;;;;;;11.29;79.56;98847.48;106399;1257;22478;-52
2023/07/29 00:28:17;;;;;;;6.60;4.60;;;;;;;11.31;79.71;98844.89;106385;1258;24394;-49
2023/07/29 00:30:50;;;;;;;5.70;5.00;;;;;;;11.34;79.85;98840.31;106206;1257;100779;-51
2023/07/29 00:33:20;;;;;;;5.70;4.90;;;;;;;11.37;80.12;98839.44;106497;1257;24242;-52
2023/07/29 00:35:49;;;;;;;7.40;5.70;;;;;;;11.41;80.19;98835.91;106285;1259;99130;-50
2023/07/29 00:38:18;;;;;;;7.50;5.20;;;;;;;11.47;80.48;98834.85;106368;1257;22531;-50
2023/07/29 00:40:47;;;;;;;8.00;6.00;;;;;;;11.50;80.61;98836.54;106370;1257;99866;-52
2023/07/29 00:43:16;;;;;;;7.80;5.50;;;;;;;11.58;80.90;98833.42;110197;1257;22087;-51
2023/07/29 00:45:45;;;;;;;7.30;6.20;;;;;;;11.63;80.89;98834.13;110132;1258;22109;-51
2023/07/29 00:48:14;;;;;;;8.40;6.20;;;;;;;11.68;80.94;98831.34;108257;1258;99624;-55
2023/07/29 00:50:44;;;;;;;6.80;5.60;;;;;;;11.74;81.19;98833.56;106750;1257;25466;-52
2023/07/29 00:53:13;;;;;;;6.90;5.60;;;;;;;11.76;81.22;98837.11;106369;1258;99318;-52
2023/07/29 00:55:43;;;;;;;6.10;5.20;;;;;;;11.76;81.24;98842.64;106393;1257;22535;-51
2023/07/29 00:58:12;;;;;;;6.60;4.70;;;;;;;11.79;81.12;98844.58;106412;1258;23929;-54
2023/07/29 01:00:41;;;;;;;5.80;4.30;;;;;;;11.79;81.13;98848.59;106369;1259;99177;-53
2023/07/29 01:03:10;;;;;;;5.90;4.80;;;;;;;11.76;80.97;98845.77;106477;1257;25492;-53
2023/07/29 01:06:07;;;;;;;5.80;4.90;;;;;;;11.73;80.83;98844.46;106285;1257;99224;-50
2023/07/29 01:08:46;;;;;;;6.80;5.00;;;;;;;11.66;80.96;98844.71;106423;1258;22516;-54
2023/07/29 01:11:26;;;;;;;6.20;5.40;;;;;;;11.64;81.32;98845.00;106356;1259;99323;-55
2023/07/29 01:14:10;;;;;;;6.10;5.40;;;;;;;11.63;81.41;98848.91;106381;1258;24225;-51
2023/07/29 01:16:42;;;;;;;6.10;5.10;;;;;;;11.64;81.64;98847.85;106255;1257;102350;-52
2023/07/29 01:19:37;;;;;;;5.70;4.80;;;;;;;11.63;81.86;98848.75;106423;1258;24265;-54
2023/07/29 01:22:08;;;;;;;5.20;4.70;;;;;;;11.63;82.05;98845.83;106403;1257;25431;-51
2023/07/29 01:24:38;;;;;;;6.20;5.00;;;;;;;11.62;82.02;98844.83;106366;1257;100196;-51
2023/07/29 01:27:07;;;;;;;7.00;5.60;;;;;;;11.61;82.21;98843.14;106347;1257;24196;-54
2023/07/29 01:29:36;;;;;;;7.60;6.10;;;;;;;11.62;82.49;98839.92;106233;1260;99142;-53
2023/07/29 01:32:17;;;;;;;6.70;5.60;;;;;;;11.65;82.77;98843.59;106336;1261;25361;-51
2023/07/29 01:34:59;;;;;;;6.10;5.50;;;;;;;11.66;82.63;98849.29;106217;1257;99042;-54
2023/07/29 01:37:32;;;;;;;5.50;5.00;;;;;;;11.63;82.45;98845.27;106428;1257;22627;-54
2023/07/29 01:40:02;;;;;;;5.10;4.60;;;;;;;11.61;82.67;98847.11;106421;1258;23915;-54
2023/07/29 01:42:31;;;;;;;7.90;7.10;;;;;;;11.59;82.86;98848.98;106362;1257;99131;-54
2023/07/29 01:45:01;;;;;;;6.40;5.40;;;;;;;11.62;83.04;98850.95;106396;1258;22520;-52
2023/07/29 01:47:32;;;;;;;7.60;5.70;;;;;;;11.63;83.02;98848.77;106413;1257;99253;-51
2023/07/29 01:50:03;;;;;;;7.50;5.10;;;;;;;11.59;82.89;98853.40;106370;1257;25277;-51
2023/07/29 01:52:32;;;;;;;6.30;5.60;;;;;;;11.56;83.02;98855.52;106387;1257;99343;-52
2023/07/29 01:55:01;;;;;;;7.30;6.00;;;;;;;11.55;83.35;98856.63;106462;1258;24249;-52
2023/07/29 01:57:30;;;;;;;7.90;5.40;;;;;;;11.53;83.51;98858.13;106446;1258;24250;-54
2023/07/29 02:00:00;;;;;;;6.40;5.20;;;;;;;11.53;83.85;98858.09;106251;1258;99128;-51
2023/07/29 02:02:29;;;;;;;6.70;5.40;;;;;;;11.56;83.96;98858.44;106508;1259;23944;-53
2023/07/29 02:04:58;;;;;;;6.10;5.30;;;;;;;11.57;84.02;98858.90;106346;1257;99305;-54
2023/07/29 02:07:27;;;;;;;5.50;5.00;;;;;;;11.57;84.04;98856.09;106366;1257;24241;-56
2023/07/29 02:09:56;;;;;;;4.80;4.40;;;;;;;11.58;84.10;98858.34;106364;1258;25420;-54
2023/07/29 02:12:25;;;;;;;5.40;4.90;;;;;;;11.60;84.19;98862.23;106313;1257;99414;-52
2023/07/29 02:14:54;;;;;;;5.90;5.30;;;;;;;11.62;84.57;98861.55;106312;1258;22542;-54
2023/07/29 02:17:23;;;;;;;5.90;5.00;;;;;;;11.65;84.52;98861.56;106346;1259;99127;-52
2023/07/29 02:19:52;;;;;;;5.60;5.00;;;;;;;11.67;84.70;98862.27;106421;1258;24100;-52
2023/07/29 02:22:21;;;;;;;5.00;4.60;;;;;;;11.72;84.91;98865.25;106601;1258;24243;-52
2023/07/29 02:24:50;;;;;;;6.10;5.50;;;;;;;11.78;85.09;98864.16;106460;1259;99820;-52
2023/07/29 02:27:19;;;;;;;5.80;5.20;;;;;;;11.83;85.12;98866.96;106356;1259;22992;-52
2023/07/29 02:29:48;;;;;;;6.10;5.40;;;;;;;11.86;85.18;98867.29;106293;1259;99164;-52
2023/07/29 02:32:17;;;;;;;6.50;5.80;;;;;;;11.91;85.42;98871.23;106405;1257;22602;-53
2023/07/29 02:34:46;;;;;;;6.90;6.00;;;;;;;11.97;85.52;98871.33;106366;1258;99830;-53
2023/07/29 02:37:15;;;;;;;9.00;6.00;;;;;;;12.00;85.38;98873.89;106410;1258;22536;-54
2023/07/29 02:39:45;;;;;;;8.80;6.20;;;;;;;12.01;85.33;98874.52;106434;1258;25349;-51
2023/07/29 02:42:16;;;;;;;7.50;6.10;;;;;;;12.03;85.52;98875.09;106304;1258;99158;-52
2023/07/29 02:44:45;;;;;;;8.10;5.50;;;;;;;12.10;85.50;98879.69;106362;1258;25300;-53
2023/07/29 02:47:14;;;;;;;7.90;6.00;;;;;;;12.16;85.52;98878.75;106318;1258;99143;-53
2023/07/29 02:49:43;;;;;;;8.20;6.50;;;;;;;12.24;85.79;98878.19;106405;1258;25494;-53
2023/07/29 02:52:12;;;;;;;6.60;5.30;;;;;;;12.30;85.74;98877.25;106384;1258;22530;-51
2023/07/29 02:54:41;;;;;;;9.30;6.20;;;;;;;12.38;86.08;98877.63;106325;1257;99286;-55
2023/07/29 02:57:10;;;;;;;7.40;6.50;;;;;;;12.46;86.48;98879.86;106349;1258;25274;-54
2023/07/29 02:59:39;;;;;;;8.00;6.40;;;;;;;12.54;86.56;98883.37;106311;1257;99143;-52
2023/07/29 03:02:08;;;;;;;7.60;6.60;;;;;;;12.59;86.73;98883.52;106445;1258;25335;-52
2023/07/29 03:04:37;;;;;;;6.90;6.20;;;;;;;12.63;86.89;98888.30;106337;1258;99281;-51
2023/07/29 03:07:06;;;;;;;6.50;5.90;;;;;;;12.71;87.12;98890.86;106354;1257;24243;-53
2023/07/29 03:09:36;;;;;;;7.80;6.60;;;;;;;12.80;87.19;98889.45;106402;1259;22527;-54
2023/07/29 03:12:05;;;;;;;5.70;5.10;;;;;;;12.86;87.57;98891.60;106362;1257;99217;-52
2023/07/29 03:14:34;;;;;;;6.30;5.40;;;;;;;12.94;87.65;98892.27;106438;1258;22562;-53
2023/07/29 03:17:04;;;;;;;5.90;5.30;;;;;;;13.02;87.64;98901.14;106340;1257;99319;-52
2023/07/29 03:19:33;;;;;;;7.20;5.60;;;;;;;13.10;87.79;98906.68;106408;1258;25239;-53
2023/07/29 03:22:02;;;;;;;8.40;5.50;;;;;;;13.19;87.88;98903.58;106439;1257;24335;-51
2023/07/29 03:24:31;;;;;;;7.60;5.70;;;;;;;13.25;87.99;98902.14;106429;1257;99245;-56
2023/07/29 03:27:00;;;;;;;7.50;6.00;;;;;;;13.31;87.96;98898.77;106369;1257;24220;-53
2023/07/29 03:29:30;;;;;;;7.70;6.30;;;;;;;13.35;87.85;98897.06;106337;1259;99689;-53
2023/07/29 03:31:58;;;;;;;6.60;5.90;;;;;;;13.38;87.85;98898.58;106531;1258;22611;-58
2023/07/29 03:34:27;;;;;;;7.30;5.40;;;;;;;13.41;88.03;98897.86;106307;1259;99327;-54
2023/07/29 03:36:57;;;;;;;7.50;5.40;;;;;;;13.44;88.37;98900.80;106457;1259;22541;-56
2023/07/29 03:39:26;;;;;;;7.40;5.90;;;;;;;13.49;88.48;98901.52;106573;1259;23902;-53
2023/07/29 03:41:54;;;;;;;6.20;5.40;;;;;;;13.54;88.50;98898.98;106306;1257;99696;-55
2023/07/29 03:44:23;;;;;;;7.30;5.60;;;;;;;13.59;88.62;98898.30;106359;1257;24223;-52
2023/07/29 03:46:52;;;;;;;6.90;5.70;;;;;;;13.62;88.63;98899.98;106241;1257;99311;-53
2023/07/29 03:49:21;;;;;;;6.40;5.70;;;;;;;13.67;88.74;98906.48;106521;1257;22531;-53
2023/07/29 03:51:50;;;;;;;5.40;4.90;;;;;;;13.73;88.87;98913.20;106477;1258;22572;-55
2023/07/29 03:54:19;;;;;;;7.20;6.00;;;;;;;13.80;88.93;98914.46;106354;1259;100361;-56
2023/07/29 03:56:48;;;;;;;5.70;5.20;;;;;;;13.86;89.09;98912.10;106391;1257;25298;-55
2023/07/29 03:59:17;;;;;;;5.80;5.10;;;;;;;13.94;89.11;98910.63;106531;1257;99335;-54
2023/07/29 04:01:46;;;;;;;6.20;5.60;;;;;;;14.01;89.29;98913.61;106425;1258;24234;-53
2023/07/29 04:04:15;;;;;;;6.70;5.90;;;;;;;14.11;89.19;98918.83;106406;1258;22528;-53
2023/07/29 04:06:45;;;;;;;6.00;5.20;;;;;;;14.16;88.99;98918.32;106330;1258;98903;-52
2023/07/29 04:09:14;;;;;;;6.00;5.00;;;;;;;14.25;89.25;98916.23;106384;1258;22643;-54
2023/07/29 04:11:43;;;;;;;7.50;5.40;;;;;;;14.35;89.34;98917.70;106320;1258;99305;-52
2023/07/29 04:14:12;;;;;;;6.60;5.30;;;;;;;14.40;89.07;98918.71;106342;1258;22533;-55
2023/07/29 04:16:41;;;;;;;7.00;5.50;;;;;;;14.45;89.13;98919.17;106357;1258;99308;-53
2023/07/29 04:19:10;;;;;;;9.10;5.90;;;;;;;14.50;89.17;98923.75;106331;1258;25526;-53
2023/07/29 04:21:39;;;;;;;7.10;5.60;;;;;;;14.59;89.36;98923.13;106381;1258;25309;-53
2023/07/29 04:24:09;;;;;;;7.90;5.40;;;;;;;14.65;89.26;98922.82;106296;1258;99202;-53
2023/07/29 04:26:39;;;;;;;5.70;5.10;;;;;;;14.72;89.48;98921.57;106358;1258;22539;-52
2023/07/29 04:29:08;;;;;;;5.80;4.70;;;;;;;14.84;89.61;98921.48;106296;1257;99884;-55
2023/07/29 04:31:37;;;;;;;6.00;5.10;;;;;;;14.92;89.52;98919.68;106484;1258;22569;-55
2023/07/29 04:34:06;;;;;;;5.50;5.00;;;;;;;15.06;89.64;98917.41;106458;1258;25446;-53
2023/07/29 04:36:35;;;;;;;6.80;5.30;;;;;;;15.16;89.58;98916.55;106334;1258;99223;-51
2023/07/29 04:39:04;;;;;;;6.20;4.90;;;;;;;15.25;89.46;98916.17;106448;1257;22526;-52
2023/07/29 04:41:33;;;;;;;6.70;5.00;;;;;;;15.32;89.31;98909.11;106329;1259;99204;-54
2023/07/29 04:44:02;;;;;;;6.00;5.20;;;;;;;15.41;89.45;98913.67;106397;1257;22519;-54
2023/07/29 04:46:31;;;;;;;5.40;4.70;;;;;;;15.48;89.20;98916.30;106340;1258;99308;-54
2023/07/29 04:49:00;;;;;;;5.40;4.90;;;;;;;15.51;89.22;98920.81;106428;1257;25329;-53
2023/07/29 04:51:31;;;;;;;5.70;4.70;;;;;;;15.54;89.25;98920.90;106557;1258;25290;-51
2023/07/29 04:54:00;;;;;;;8.50;4.90;;;;;;;15.61;89.39;98921.59;106325;1257;99119;-53
2023/07/29 04:56:30;;;;;;;5.60;5.00;;;;;;;15.61;88.96;98918.59;106491;1259;24282;-53
2023/07/29 04:58:59;;;;;;;6.70;5.10;;;;;;;15.60;89.09;98917.59;106408;1258;99322;-55
2023/07/29 05:01:28;;;;;;;5.50;4.90;;;;;;;15.59;88.98;98915.58;106476;1258;24101;-56
2023/07/29 05:03:57;;;;;;;6.40;5.10;;;;;;;15.64;89.32;98919.73;106406;1257;24073;-54
2023/07/29 05:06:27;;;;;;;6.10;4.50;;;;;;;15.71;89.48;98916.75;106359;1258;99201;-55
2023/07/29 05:08:58;;;;;;;5.90;4.50;;;;;;;15.77;89.43;98917.88;106436;1257;22530;-53
2023/07/29 05:11:27;;;;;;;5.80;4.50;;;;;;;15.83;89.50;98915.94;106218;1257;259642;-56
2023/07/29 05:13:56;;;;;;;5.70;4.90;;;;;;;15.95;89.69;98913.40;106409;1259;25244;-53
2023/07/29 05:16:25;;;;;;;5.30;4.50;;;;;;;16.06;89.57;98915.44;106422;1257;22785;-50
2023/07/29 05:18:54;;;;;;;4.80;4.40;;;;;;;16.19;89.78;98918.27;106324;1257;24249;-54
2023/07/29 05:21:23;;;;;;;5.30;3.50;;;;;;;16.37;90.02;98917.42;106358;1257;23874;-58
2023/07/29 05:23:53;;;;;;;3.90;3.50;;;;;;;16.54;89.77;98913.70;106413;1258;99851;-54
2023/07/29 05:26:22;;;;;;;3.70;3.30;;;;;;;16.69;89.85;98912.29;106515;1257;24246;-51
2023/07/29 05:28:52;;;;;;;3.80;3.40;;;;;;;16.84;89.58;98916.52;106439;1257;99294;-54
2023/07/29 05:31:23;;;;;;;6.50;3.70;;;;;;;16.95;89.39;98912.67;106452;1259;25390;-54
2023/07/29 05:33:52;;;;;;;3.10;2.80;;;;;;;17.08;89.28;98912.79;106512;1257;22539;-53
2023/07/29 05:36:24;;;;;;;3.30;2.90;;;;;;;17.23;89.33;98917.64;106710;1257;100304;-52
2023/07/29 05:39:00;;;;;;;3.20;2.90;;;;;;;17.30;88.81;98922.35;106816;1257;24217;-53
2023/07/29 05:41:35;;;;;;;2.80;2.50;;;;;;;17.30;88.56;98920.59;106339;1257;99349;-53
2023/07/29 05:44:05;;;;;;;2.70;2.50;;;;;;;17.27;88.26;98920.32;106479;1258;25494;-48
2023/07/29 05:46:39;;;;;;;4.70;2.90;;;;;;;17.25;88.29;98926.27;106430;1258;99302;-52
2023/07/29 05:49:08;;;;;;;3.70;2.10;;;;;;;17.29;88.23;98922.81;106422;1260;25241;-51
2023/07/29 05:51:40;;;;;;;3.80;2.70;;;;;;;17.35;88.44;98917.33;106465;1257;24276;-54
2023/07/29 05:54:09;;;;;;;3.10;2.60;;;;;;;17.50;88.84;98916.15;106413;1257;99106;-53
2023/07/29 05:56:39;;;;;;;3.30;2.50;;;;;;;17.69;88.77;98921.13;106511;1257;22816;-47
2023/07/29 05:59:08;;;;;;;3.20;2.40;;;;;;;17.89;88.69;98924.84;106394;1258;99342;-54
2023/07/29 06:01:38;;;;;;;2.90;2.40;;;;;;;18.07;88.49;98927.09;106421;1260;22524;-53
2023/07/29 06:04:07;;;;;;;5.10;2.40;;;;;;;18.25;88.39;98928.61;106460;1258;22629;-54
2023/07/29 06:06:37;;;;;;;2.80;2.20;;;;;;;18.46;88.27;98932.98;106351;1258;98949;-52
2023/07/29 06:09:06;;;;;;;2.50;2.30;;;;;;;18.70;87.98;98932.91;106441;1257;25331;-53
2023/07/29 06:11:36;;;;;;;3.90;2.20;;;;;;;18.89;87.74;98934.17;106425;1257;99202;-51
2023/07/29 06:14:05;;;;;;;6.20;2.10;;;;;;;19.05;87.24;98931.74;106274;1260;25492;-52
2023/07/29 06:16:34;;;;;;;1.90;1.70;;;;;;;19.11;86.55;98935.29;106378;1257;99370;-50
2023/07/29 06:19:15;;;;;;;6.60;1.70;;;;;;;19.19;86.66;98939.41;106300;1260;22556;-51
2023/07/29 06:21:56;;;;;;;3.20;2.10;;;;;;;19.36;86.42;98939.98;106427;1257;22966;-53
2023/07/29 06:24:25;;;;;;;2.50;1.80;;;;;;;19.57;86.71;98936.84;106231;1257;99692;-53
2023/07/29 06:26:54;;;;;;;2.40;1.50;;;;;;;19.82;86.59;98931.36;106650;1257;24704;-52
2023/07/29 06:29:23;;;;;;;1.90;1.70;;;;;;;19.94;85.62;98936.43;106443;1258;99160;-57
2023/07/29 06:31:52;;;;;;;2.10;1.60;;;;;;;19.99;85.24;98936.02;106419;1257;24266;-56
2023/07/29 06:34:21;;;;;;;1.90;1.40;;;;;;;20.05;85.03;98935.67;106428;1257;22622;-53
2023/07/29 06:36:55;;;;;;;1.80;1.20;;;;;;;20.16;85.05;98937.43;106317;1257;22530;-53
2023/07/29 06:39:27;;;;;;;2.10;1.70;;;;;;;20.28;84.76;98932.13;106629;1258;24321;-52
2023/07/29 06:41:58;;;;;;;1.90;1.50;;;;;;;20.46;84.19;98937.60;106338;1261;99167;-54
2023/07/29 06:44:28;;;;;;;2.10;1.30;;;;;;;20.62;83.95;98938.70;106283;1260;24070;-58
2023/07/29 06:46:58;;;;;;;1.80;1.40;;;;;;;20.78;83.36;98929.80;106324;1257;99370;-53
2023/07/29 06:49:27;;;;;;;2.10;1.60;;;;;;;21.01;83.27;98931.00;106450;1257;25413;-57
2023/07/29 06:51:56;;;;;;;2.10;1.50;;;;;;;21.33;83.08;98930.55;106512;1257;22635;-53
2023/07/29 06:54:28;;;;;;;1.30;1.20;;;;;;;21.59;82.59;98933.77;106214;1258;99754;-55
2023/07/29 06:56:58;;;;;;;1.80;1.10;;;;;;;21.90;82.51;98932.23;106343;1259;24238;-51
2023/07/29 06:59:27;;;;;;;1.70;1.30;;;;;;;22.22;81.67;98929.42;106320;1258;99182;-53
2023/07/29 07:02:05;;;;;;;1.20;1.00;;;;;;;22.49;81.06;98931.73;106462;1257;25588;-50
2023/07/29 07:04:36;;;;;;;2.00;1.30;;;;;;;22.93;81.64;98938.64;106290;1257;99408;-53
2023/07/29 07:07:13;;;;;;;2.70;0.80;;;;;;;23.42;81.10;98934.55;106450;1257;22978;-54
2023/07/29 07:09:42;;;;;;;1.70;1.20;;;;;;;24.01;79.52;98932.09;106489;1257;25422;-55
2023/07/29 07:12:11;;;;;;;1.30;0.90;;;;;;;24.34;79.31;98929.87;106629;1257;99232;-54
2023/07/29 07:14:43;;;;;;;1.30;1.10;;;;;;;24.83;79.02;98925.20;106486;1258;22531;-50
2023/07/29 07:17:13;;;;;;;1.20;0.70;;;;;;;25.39;78.32;98922.82;106284;1257;99382;-54
2023/07/29 07:19:42;;;;;;;1.20;1.10;;;;;;;26.09;77.98;98922.27;106441;1257;27361;-53
2023/07/29 07:22:11;;;;;;;1.20;1.00;;;;;;;26.83;76.45;98923.69;106492;1257;22534;-56
2023/07/29 07:24:44;;;;;;;3.70;1.20;;;;;;;27.42;74.53;98918.33;106366;1257;99686;-52
2023/07/29 07:27:14;;;;;;;2.90;1.10;;;;;;;28.06;74.13;98911.66;106410;1257;22667;-56
2023/07/29 07:29:43;;;;;;;1.30;0.80;;;;;;;28.71;74.35;98909.79;106364;1257;99072;-54
2023/07/29 07:32:11;;;;;;;1.40;1.00;;;;;;;29.50;73.59;98913.13;106413;1259;25457;-56
2023/07/29 07:34:41;;;;;;;3.60;1.20;;;;;;;30.65;74.00;98913.44;106356;1257;99771;-53
2023/07/29 07:37:10;;;;;;;1.30;1.00;;;;;;;31.89;70.76;98914.46;106427;1257;22526;-55
2023/07/29 07:39:39;;;;;;;2.50;1.10;;;;;;;32.44;68.26;98911.47;106335;1257;22719;-54
2023/07/29 07:42:08;;;;;;;1.50;1.00;;;;;;;32.64;67.38;98909.30;106326;1257;99147;-54
2023/07/29 07:44:37;;;;;;;1.90;1.20;;;;;;;33.31;67.86;98910.55;106331;1257;23919;-54
2023/07/29 07:47:07;;;;;;;2.50;1.00;;;;;;;33.96;66.66;98905.94;106277;1258;99552;-61
2023/07/29 07:49:36;;;;;;;11.80;1.90;;;;;;;34.70;65.57;98910.10;106334;1257;22532;-61
2023/07/29 07:52:05;;;;;;;4.80;1.00;;;;;;;35.62;64.84;98906.27;106464;1257;22540;-61
2023/07/29 07:54:34;;;;;;;1.10;0.90;;;;;;;36.79;63.73;98907.91;106321;1257;99103;-65
2023/07/29 07:57:04;;;;;;;10.60;1.50;;;;;;;37.92;61.78;98907.90;106411;1257;25426;-60
2023/07/29 07:59:33;;;;;;;4.80;1.30;;;;;;;38.41;59.64;98906.16;106362;1257;99782;-64
2023/07/29 08:02:02;;;;;;;1.20;1.00;;;;;;;38.69;56.95;98900.08;106300;1257;24234;-62
2023/07/29 08:04:30;;;;;;;16.70;1.30;;;;;;;38.73;56.59;98899.61;106159;1257;99319;-57
2023/07/29 08:06:59;;;;;;;0.90;0.80;;;;;;;38.96;54.88;98898.98;106398;1257;22538;-58
2023/07/29 08:09:28;;;;;;;8.00;1.70;;;;;;;38.98;54.27;98899.30;106279;1258;27570;-57
2023/07/29 08:11:57;;;;;;;2.00;0.80;;;;;;;39.21;52.52;98888.22;106482;1257;99086;-57
2023/07/29 08:14:26;;;;;;;4.60;1.00;;;;;;;39.62;52.08;98887.69;106432;1257;23626;-58
2023/07/29 08:16:55;;;;;;;6.70;1.10;;;;;;;40.22;50.97;98885.11;106341;1257;99336;-60
2023/07/29 08:19:25;;;;;;;4.30;1.00;;;;;;;40.70;49.04;98883.17;106446;1257;22524;-59
2023/07/29 08:21:54;;;;;;;6.30;1.00;;;;;;;40.83;47.60;98883.85;106396;1257;22562;-61
2023/07/29 08:24:23;;;;;;;1.50;0.90;;;;;;;40.76;45.34;98885.13;106315;1257;99783;-61
2023/07/29 08:26:53;;;;;;;4.80;1.20;;;;;;;40.14;42.38;98885.00;106418;1258;25362;-64
2023/07/29 08:29:22;;;;;;;2.30;1.10;;;;;;;39.32;41.60;98878.66;106295;1257;99145;-63
2023/07/29 08:31:51;;;;;;;1.00;0.90;;;;;;;39.29;41.81;98876.44;106573;1258;23877;-60
2023/07/29 08:34:23;;;;;;;1.30;1.00;;;;;;;39.99;41.03;98876.38;106347;1257;25449;-60
2023/07/29 08:36:53;;;;;;;1.50;1.00;;;;;;;40.44;39.70;98871.61;106222;1257;99194;-58
2023/07/29 08:39:22;;;;;;;1.30;0.70;;;;;;;40.70;37.92;98874.16;106238;1257;24179;-61
2023/07/29 08:41:56;;;;;;;1.20;0.80;;;;;;;40.30;36.68;98876.67;106283;1257;99129;-60
2023/07/29 08:44:27;;;;;;;2.10;0.90;;;;;;;40.26;37.13;98875.16;106697;1257;23701;-59
2023/07/29 08:46:59;;;;;;;2.00;0.90;;;;;;;40.73;35.48;98871.65;106684;1257;99777;-59
2023/07/29 08:49:38;;;;;;;1.30;0.90;;;;;;;40.95;34.88;98864.32;106507;1258;25348;-64
2023/07/29 08:52:11;;;;;;;1.90;0.80;;;;;;;41.95;34.76;98865.76;106582;1257;22534;-60
2023/07/29 08:54:43;;;;;;;1.40;0.80;;;;;;;42.65;33.54;98863.86;106435;1257;99166;-59
2023/07/29 08:57:14;;;;;;;1.90;1.00;;;;;;;43.08;32.25;98872.13;106393;1257;22500;-58
2023/07/29 08:59:46;;;;;;;3.70;0.80;;;;;;;43.22;32.83;98867.31;106419;1257;99161;-60
2023/07/29 09:02:16;;;;;;;2.40;0.80;;;;;;;44.35;31.92;98867.67;106484;1257;22657;-59
2023/07/29 09:04:48;;;;;;;2.20;0.70;;;;;;;44.55;29.82;98870.36;106340;1259;99204;-61
2023/07/29 09:07:19;;;;;;;1.60;0.80;;;;;;;44.37;29.48;98866.60;106398;1257;24442;-59
2023/07/29 09:09:52;;;;;;;1.20;0.90;;;;;;;44.62;28.77;98866.36;106452;1257;24251;-58
2023/07/29 09:12:31;;;;;;;0.70;0.60;;;;;;;45.00;27.94;98862.38;106211;1257;99369;-58
2023/07/29 09:15:01;;;;;;;1.30;0.80;;;;;;;45.20;27.46;98861.30;106466;1257;22529;-57
2023/07/29 09:17:35;;;;;;;1.80;0.90;;;;;;;45.19;26.14;98863.86;107209;1257;99102;-57
2023/07/29 09:20:10;;;;;;;1.30;0.80;;;;;;;45.21;26.69;98866.98;106360;1257;25494;-58
2023/07/29 09:22:44;;;;;;;18.70;2.20;;;;;;;45.67;25.68;98862.04;106292;1257;99961;-57
2023/07/29 09:25:16;;;;;;;4.00;1.10;;;;;;;45.46;25.03;98865.89;107302;1258;24297;-58
2023/07/29 09:27:46;;;;;;;2.30;0.80;;;;;;;45.33;24.83;98860.79;106509;1257;22538;-56
2023/07/29 09:30:17;;;;;;;1.40;0.70;;;;;;;45.40;24.78;98865.07;106245;1257;99278;-58
2023/07/29 09:32:47;;;;;;;0.80;0.70;;;;;;;45.63;24.26;98855.63;106454;1257;22526;-59
2023/07/29 09:35:24;;;;;;;0.80;0.80;;;;;;;45.93;24.08;98856.80;106293;1257;99155;-59
2023/07/29 09:37:59;;;;;;;0.90;0.60;;;;;;;46.84;23.19;98860.55;106295;1257;22555;-58
2023/07/29 09:40:37;;;;;;;0.80;0.80;;;;;;;46.94;22.35;98855.09;106266;1258;99964;-57
2023/07/29 09:43:09;;;;;;;1.60;0.80;;;;;;;47.35;22.85;98857.48;106370;1257;23212;-58
2023/07/29 09:45:48;;;;;;;0.90;0.70;;;;;;;48.14;22.81;98851.88;106369;1257;22484;-57
2023/07/29 09:48:24;;;;;;;0.70;0.70;;;;;;;49.22;22.49;98850.70;106279;1257;99189;-60
2023/07/29 09:50:58;;;;;;;1.50;0.60;;;;;;;50.21;22.26;98841.80;106475;1257;22557;-58
2023/07/29 09:53:29;;;;;;;6.10;1.20;;;;;;;50.87;21.35;98843.98;106298;1257;99236;-58
2023/07/29 09:55:58;;;;;;;1.60;0.60;;;;;;;51.08;20.33;98845.27;106546;1257;22541;-60
2023/07/29 09:58:28;;;;;;;4.40;0.80;;;;;;;50.82;20.37;98840.14;106505;1257;24748;-59
2023/07/29 10:00:58;;;;;;;1.60;1.00;;;;;;;50.91;19.98;98838.45;106485;1257;24242;-58
2023/07/29 10:03:28;;;;;;;0.70;0.70;;;;;;;51.76;19.84;98834.80;106498;1257;22777;-60
2023/07/29 10:06:02;;;;;;;1.30;0.90;;;;;;;51.62;17.76;98839.63;106198;1257;99212;-59
2023/07/29 10:08:35;;;;;;;0.90;0.80;;;;;;;50.36;18.51;98835.08;106482;1257;22668;-61
2023/07/29 10:11:08;;;;;;;5.90;0.90;;;;;;;49.88;18.17;98834.67;106260;1257;99919;-59
2023/07/29 10:13:38;;;;;;;1.00;0.60;;;;;;;50.05;18.06;98832.44;106301;1257;22537;-58
2023/07/29 10:16:08;;;;;;;0.90;0.60;;;;;;;50.84;18.08;98833.10;106598;1258;22656;-60
2023/07/29 10:18:39;;;;;;;0.80;0.70;;;;;;;51.82;17.45;98835.80;106253;1257;99153;-62
2023/07/29 10:21:09;;;;;;;1.20;1.10;;;;;;;51.55;16.54;98832.20;106475;1257;25388;-57
2023/07/29 10:23:52;;;;;;;4.80;0.60;;;;;;;51.51;16.90;98831.05;106363;1257;99764;-57
2023/07/29 10:26:26;;;;;;;3.40;0.80;;;;;;;52.47;16.58;98833.91;106254;1257;25351;-58
2023/07/29 10:29:04;;;;;;;1.30;0.70;;;;;;;52.95;15.94;98836.01;106297;1258;99319;-58
2023/07/29 10:31:35;;;;;;;1.00;0.70;;;;;;;53.24;15.74;98833.61;106481;1257;22556;-59
2023/07/29 10:34:07;;;;;;;1.40;0.80;;;;;;;53.38;15.74;98826.48;106218;1257;24273;-59
2023/07/29 10:36:37;;;;;;;1.00;0.50;;;;;;;53.30;15.45;98820.69;106378;1257;99456;-57
2023/07/29 10:39:10;;;;;;;1.00;0.80;;;;;;;54.28;15.50;98821.30;107610;1257;22628;-57
2023/07/29 10:42:00;;;;;;;5.20;1.00;;;;;;;54.24;14.29;98813.76;106472;1258;99618;-58
2023/07/29 10:44:39;;;;;;;1.50;0.80;;;;;;;54.22;14.16;98813.75;108370;1257;22552;-58
2023/07/29 10:47:26;;;;;;;0.70;0.70;;;;;;;54.55;14.12;98816.64;106336;1258;99907;-58
2023/07/29 10:49:58;;;;;;;4.10;0.90;;;;;;;54.89;13.58;98818.14;106409;1257;22530;-59
2023/07/29 10:52:49;;;;;;;2.00;0.80;;;;;;;54.86;13.59;98812.69;106455;1257;22536;-61
2023/07/29 10:55:37;;;;;;;0.70;0.70;;;;;;;55.48;13.29;98813.52;106388;1260;23930;-59
2023/07/29 10:58:16;;;;;;;1.00;0.90;;;;;;;55.66;13.26;98815.17;106194;1259;24809;-57
2023/07/29 11:00:46;;;;;;;2.80;1.00;;;;;;;55.93;13.13;98814.17;106439;1257;99212;-58
2023/07/29 11:03:15;;;;;;;0.70;0.70;;;;;;;56.07;12.97;98812.42;106585;1257;25412;-57
2023/07/29 11:05:50;;;;;;;1.40;0.80;;;;;;;54.96;11.45;98801.73;106120;1257;99681;-59
2023/07/29 11:08:23;;;;;;;1.10;0.80;;;;;;;53.69;12.07;98797.95;106333;1257;22534;-61
2023/07/29 11:11:04;;;;;;;1.00;0.90;;;;;;;54.61;12.54;98797.66;107591;1257;100210;-58
2023/07/29 11:13:36;;;;;;;0.90;0.90;;;;;;;55.50;12.26;98796.24;110126;1257;22096;-58
2023/07/29 11:16:10;;;;;;;2.20;0.70;;;;;;;55.72;12.17;98792.48;110128;1257;22230;-58
2023/07/29 11:18:41;;;;;;;1.00;0.90;;;;;;;56.18;12.45;98795.70;110030;1257;99069;-58
2023/07/29 11:21:10;;;;;;;3.70;1.00;;;;;;;56.15;11.92;98794.23;110123;1257;22272;-58
2023/07/29 11:23:39;;;;;;;0.90;0.80;;;;;;;55.09;11.75;98789.14;107518;1257;99094;-59
2023/07/29 11:26:08;;;;;;;1.10;1.00;;;;;;;53.69;11.80;98788.77;106522;1257;26502;-57
2023/07/29 11:28:40;;;;;;;0.80;0.80;;;;;;;52.84;11.67;98785.52;106424;1257;25459;-60
2023/07/29 11:31:10;;;;;;;0.80;0.80;;;;;;;51.76;11.38;98785.02;106407;1258;25565;-56
2023/07/29 11:33:45;;;;;;;0.90;0.80;;;;;;;50.67;11.97;98786.20;106798;1257;22557;-57
2023/07/29 11:36:35;;;;;;;0.80;0.80;;;;;;;50.11;11.79;98778.11;106848;1258;99990;-57
2023/07/29 11:39:45;;;;;;;2.30;0.70;;;;;;;49.85;12.36;98773.33;106661;1258;22808;-57
2023/07/29 11:42:26;;;;;;;0.70;0.70;;;;;;;49.90;12.56;98771.56;106768;1257;99556;-58